Home   Weather   Poland   Szczecin   Past weeks
Flag for Poland

Past Weather in Szczecin, Poland — Yesterday and Last 2 Weeks

Currently: 70 °F. Sprinkles. Passing clouds. (Weather station: Szczecin Airport, Poland). See more current weather

Past Weather in Szczecin — Graph

°F

Szczecin Temperature Yesterday

Maximum temperature yesterday: 75 °F (at 12:00 pm)
Minimum temperature yesterday: 63 °F (at 11:30 pm)
Average temperature yesterday: 69 °F

High & Low Weather Summary for the Past Weeks

 TemperatureHumidityPressure
High88 °F (Jul 10, 12:00 pm)100% (Jun 28, 1:30 am)30.15 "Hg (Jun 28, 1:30 am)
Low46 °F (Jul 5, 4:00 am)34% (Jul 8, 1:30 pm)29.50 "Hg (Jul 6, 6:00 pm)
Average66 °F76%29.85 "Hg
* Reported Jun 27 10:00 pm — Jul 12 10:00 pm, Szczecin. Weather by CustomWeather, © 2024

Note: Actual official high and low records may vary slightly from our data, if they occured in-between our weather recording intervals... More about our weather records

Szczecin Weather History for the Previous 24 Hours

Scroll right to see more
 ConditionsComfort  
Time TempWeatherWind HumidityBarometerVisibility
10:00 pm
Fri, Jul 12
70 °FClear.2 mph78%29.77 "Hg10 mi
9:30 pm70 °FPassing clouds.7 mph78%29.77 "HgN/A
9:00 pm72 °FSprinkles. Passing clouds.8 mph73%29.77 "HgN/A
8:30 pm72 °FPassing clouds.9 mph69%29.80 "HgN/A
8:00 pm73 °FScattered clouds.13 mph65%29.80 "HgN/A
7:30 pm73 °FSunny.10 mph65%29.80 "Hg10 mi
7:00 pm75 °FSunny.7 mph61%29.80 "Hg10 mi
6:30 pm75 °FPassing clouds.9 mph61%29.83 "HgN/A
6:00 pm75 °FPassing clouds.8 mph61%29.83 "HgN/A
5:30 pm77 °FSunny.9 mph57%29.86 "Hg10 mi
5:00 pm77 °FPassing clouds.7 mph57%29.86 "HgN/A
4:30 pm77 °FSunny.8 mph54%29.86 "Hg10 mi
4:00 pm77 °FSunny.9 mph54%29.89 "Hg10 mi
3:30 pm77 °FSunny.9 mph57%29.89 "Hg10 mi
3:00 pm77 °FSunny.12 mph54%29.92 "Hg10 mi
2:30 pm77 °FPassing clouds.12 mph51%29.92 "HgN/A
2:00 pm77 °FPassing clouds.10 mph57%29.92 "HgN/A
1:30 pm77 °FPassing clouds.13 mph57%29.92 "HgN/A
1:00 pm79 °FPassing clouds.13 mph54%29.95 "HgN/A
12:30 pm77 °FSunny.13 mph54%29.95 "Hg10 mi
12:00 pm75 °FPassing clouds.13 mph57%29.95 "HgN/A
11:00 am73 °FSunny.9 mph65%29.98 "Hg10 mi
10:30 am73 °FPassing clouds.9 mph65%29.98 "HgN/A
10:00 am72 °FSunny.9 mph69%29.98 "Hg10 mi
9:00 am70 °FPassing clouds.8 mph69%29.98 "HgN/A
8:30 am68 °FPassing clouds.6 mph78%30.01 "HgN/A
8:00 am66 °FSunny.6 mph83%30.01 "Hg10 mi
7:00 am64 °FPassing clouds.3 mph88%30.01 "HgN/A
6:30 am63 °FSunny.2 mph94%30.01 "Hg10 mi
6:00 am61 °FSunny.5 mph100%30.01 "Hg10 mi
5:30 am57 °FSunny.7 mph100%30.01 "Hg10 mi
5:00 am61 °FSunny.2 mph100%30.01 "Hg10 mi
4:00 am61 °FClear.5 mph94%30.01 "Hg10 mi
3:00 am61 °FClear.5 mph100%30.01 "Hg10 mi
2:30 am61 °FClear.2 mph94%30.01 "Hg10 mi
2:00 am61 °FClear.5 mph94%30.01 "Hg10 mi
1:30 am63 °FClear.1 mph94%30.01 "Hg10 mi
1:00 am59 °FClear.1 mph100%30.01 "Hg10 mi
12:30 am61 °FClear.2 mph100%30.01 "Hg10 mi
12:00 am61 °FClear.2 mph100%30.01 "Hg10 mi
11:30 pm
Thu, Jul 11
63 °FPassing clouds.3 mph94%30.01 "HgN/A
11:00 pm64 °FClear.2 mph88%30.01 "Hg10 mi
10:30 pm64 °FClear.2 mph94%30.01 "Hg10 mi
10:00 pm66 °FClear.3 mph88%30.01 "Hg10 mi
Weather by CustomWeather, © 2024

See weather overview